アイウン の空港の天気 - METARとTAF

アイウン/ハッサン空港 ( GMML / EUN ) - 西サハラ アイウン
飛行場実況気象(Metar)
観測時間09/25 00:00 CET (09/24 23:00 UTC)
風向・風速北東 8m/s
視程10km以上
天気現象
なし
気温21℃
湿度78%
気圧1017hPa
METARGMML 242300Z 04015KT CAVOK 21/17 Q1017 NOSIG
過去の天気等 Google飛行場航空写真 Wunderground天気予報

過去48時間のMETAR

飛行場予報(TAF)
発表時間: 9/25 00:00 CET (9/24 23:00 UTC)
予報対象時間: 25日1時 CET ~ 26日7時 CET
風向・風速北北東 7m/s
視程10km以上
なし
TAF GMML 242300Z 2500/2606 02014KT CAVOK